Time;durP1;ratioP1;P1;durP2;ratioP2;P2;SDS_P1;SDS_P2;PMS_P1;PMS_P2;Temp;Humidity;BMP_temperature;BMP_pressure;BME280_temperature;BME280_humidity;BME280_pressure;Samples;Min_cycle;Max_cycle;Signal;HPM_P1;HPM_P2
2023/01/16 00:00:59;;;;;;;2.83;1.40;;;6.60;99.90;;;;;;5082178;28;20012;-38
2023/01/16 00:03:25;;;;;;;1.67;0.90;;;6.60;99.90;;;;;;5083208;28;20423;-39
2023/01/16 00:05:50;;;;;;;1.60;0.70;;;6.60;99.90;;;;;;5082916;28;20028;-38
2023/01/16 00:08:16;;;;;;;2.78;1.00;;;6.60;99.90;;;;;;5081459;28;20496;-39
2023/01/16 00:10:43;;;;;;;3.60;0.95;;;6.60;99.90;;;;;;5081851;28;20024;-38
2023/01/16 00:13:10;;;;;;;1.50;1.00;;;6.60;99.90;;;;;;5082916;28;20035;-39
2023/01/16 00:15:36;;;;;;;3.10;1.00;;;6.60;99.90;;;;;;5082171;28;20517;-40
2023/01/16 00:18:01;;;;;;;1.27;0.90;;;6.60;99.90;;;;;;5082373;28;20036;-38
2023/01/16 00:20:27;;;;;;;2.25;1.00;;;6.60;99.90;;;;;;5081324;28;20028;-36
2023/01/16 00:22:53;;;;;;;2.30;1.15;;;6.60;99.90;;;;;;5079950;28;20109;-37
2023/01/16 00:25:18;;;;;;;2.80;1.00;;;6.50;99.90;;;;;;5082043;28;20080;-38
2023/01/16 00:27:44;;;;;;;3.00;1.35;;;6.50;99.90;;;;;;5082056;28;20024;-36
2023/01/16 00:30:10;;;;;;;3.30;1.58;;;6.50;99.90;;;;;;5081282;28;20115;-39
2023/01/16 00:32:35;;;;;;;1.98;1.45;;;6.50;99.90;;;;;;5082079;28;20111;-39
2023/01/16 00:35:02;;;;;;;2.17;1.50;;;6.50;99.90;;;;;;5080658;28;20032;-40
2023/01/16 00:37:28;;;;;;;1.73;1.48;;;6.50;99.90;;;;;;5082034;28;20035;-39
2023/01/16 00:39:53;;;;;;;3.22;1.92;;;6.50;99.90;;;;;;5082556;28;20028;-38
2023/01/16 00:42:19;;;;;;;2.03;1.75;;;6.40;99.90;;;;;;5080418;28;20067;-39
2023/01/16 00:44:44;;;;;;;2.20;1.90;;;6.40;99.90;;;;;;5082184;28;20683;-38
2023/01/16 00:47:10;;;;;;;2.30;2.10;;;6.40;99.90;;;;;;5081240;28;20028;-36
2023/01/16 00:49:36;;;;;;;2.60;2.40;;;6.40;99.90;;;;;;5081115;28;20027;-39
2023/01/16 00:52:01;;;;;;;4.63;3.10;;;6.40;99.90;;;;;;5081543;28;20049;-40
2023/01/16 00:54:27;;;;;;;3.90;3.60;;;6.40;99.90;;;;;;5081967;28;20455;-38
2023/01/16 00:56:53;;;;;;;5.10;3.83;;;6.40;99.90;;;;;;5081199;28;20024;-38
2023/01/16 00:59:18;;;;;;;4.63;4.22;;;6.30;99.90;;;;;;5081619;28;20020;-36
2023/01/16 01:01:44;;;;;;;5.38;4.80;;;6.30;99.90;;;;;;5081776;28;20039;-35
2023/01/16 01:04:09;;;;;;;5.80;5.30;;;6.30;99.90;;;;;;5080483;28;20079;-37
2023/01/16 01:06:35;;;;;;;5.78;5.28;;;6.30;99.90;;;;;;5082360;28;20024;-37
2023/01/16 01:09:00;;;;;;;6.32;5.72;;;6.30;99.90;;;;;;5081057;28;20139;-36
2023/01/16 01:11:26;;;;;;;6.15;5.55;;;6.30;99.90;;;;;;5080953;28;20046;-37
2023/01/16 01:13:51;;;;;;;5.65;5.15;;;6.30;99.90;;;;;;5081628;28;20027;-37
2023/01/16 01:16:17;;;;;;;5.72;5.13;;;6.20;99.90;;;;;;5081442;28;20953;-39
2023/01/16 01:18:43;;;;;;;5.22;4.65;;;6.20;99.90;;;;;;5081140;28;20082;-37
2023/01/16 01:21:09;;;;;;;6.25;5.45;;;6.20;99.90;;;;;;5081527;28;20039;-40
2023/01/16 01:23:34;;;;;;;5.75;5.25;;;6.20;99.90;;;;;;5084246;28;20032;-40
2023/01/16 01:26:13;;;;;;;6.38;5.78;;;6.20;99.90;;;;;;5085252;28;20080;-38
2023/01/16 01:28:39;;;;;;;6.50;5.90;;;6.20;99.90;;;;;;5086255;28;20031;-39
2023/01/16 01:31:10;;;;;;;5.57;5.07;;;6.20;99.90;;;;;;5085214;28;20036;-37
2023/01/16 01:33:36;;;;;;;6.40;5.80;;;6.10;99.90;;;;;;5085528;28;20048;-39
2023/01/16 01:36:03;;;;;;;5.93;5.30;;;6.10;99.90;;;;;;5085186;28;20059;-37
2023/01/16 01:38:29;;;;;;;5.63;5.13;;;6.10;99.90;;;;;;5084678;28;20028;-36
2023/01/16 01:40:54;;;;;;;5.45;4.95;;;6.10;99.90;;;;;;5085293;28;20845;-38
2023/01/16 01:43:20;;;;;;;4.15;3.85;;;6.20;99.90;;;;;;5084597;28;20142;-39
2023/01/16 01:45:51;;;;;;;4.00;3.63;;;6.20;99.90;;;;;;5085087;28;20110;-39
2023/01/16 01:48:29;;;;;;;3.78;3.40;;;6.20;99.90;;;;;;5084938;28;20027;-36
2023/01/16 01:51:06;;;;;;;4.57;3.40;;;6.20;99.90;;;;;;5085478;28;20031;-38
2023/01/16 01:53:41;;;;;;;4.00;3.60;;;6.20;99.90;;;;;;5084366;28;20024;-38
2023/01/16 01:56:16;;;;;;;4.82;2.97;;;6.20;99.90;;;;;;5084251;28;20020;-38
2023/01/16 01:58:45;;;;;;;4.75;2.80;;;6.20;99.90;;;;;;5084694;28;20616;-37
2023/01/16 02:01:11;;;;;;;4.85;2.88;;;6.20;99.90;;;;;;5084029;28;20032;-38
2023/01/16 02:03:41;;;;;;;3.10;2.40;;;6.20;99.90;;;;;;5085099;28;20078;-39
2023/01/16 02:06:13;;;;;;;3.28;2.38;;;6.20;99.90;;;;;;5083720;28;20017;-39
2023/01/16 02:08:44;;;;;;;4.30;2.20;;;6.20;99.90;;;;;;5084512;28;20429;-40
2023/01/16 02:11:25;;;;;;;4.45;2.30;;;6.20;99.90;;;;;;5083992;28;20032;-39
2023/01/16 02:14:18;;;;;;;2.70;1.83;;;6.20;99.90;;;;;;5084250;28;20570;-41
2023/01/16 02:19:57;;;;;;;6.25;2.35;;;6.20;99.90;;;;;;5085099;28;20062;-38
2023/01/16 02:23:00;;;;;;;3.95;1.77;;;6.10;99.90;;;;;;5074413;28;20718;-36
2023/01/16 02:25:53;;;;;;;2.63;1.50;;;6.10;99.90;;;;;;5084123;28;20173;-39
2023/01/16 02:28:43;;;;;;;8.02;1.65;;;6.10;99.90;;;;;;5083941;28;20108;-38
2023/01/16 02:31:29;;;;;;;4.15;1.90;;;6.10;99.90;;;;;;5084510;28;20146;-35
2023/01/16 02:34:09;;;;;;;3.70;1.60;;;6.00;99.90;;;;;;5064390;28;20049;-37
2023/01/16 02:36:53;;;;;;;2.88;1.50;;;6.00;99.90;;;;;;5080084;28;20012;-39
2023/01/16 02:39:30;;;;;;;3.33;1.58;;;6.00;99.90;;;;;;5063864;28;20043;-40
2023/01/16 02:42:13;;;;;;;2.17;1.33;;;6.00;99.90;;;;;;5081199;28;20407;-38
2023/01/16 02:45:12;;;;;;;4.15;1.85;;;6.00;99.90;;;;;;5085173;28;20056;-36
2023/01/16 02:47:46;;;;;;;3.58;1.00;;;6.00;99.90;;;;;;5084822;28;20024;-36
2023/01/16 02:50:30;;;;;;;3.88;1.00;;;5.90;99.90;;;;;;5082765;28;20384;-40
2023/01/16 02:53:14;;;;;;;2.30;1.05;;;5.80;99.90;;;;;;5081925;28;20024;-40
2023/01/16 02:55:57;;;;;;;2.60;1.25;;;5.70;99.90;;;;;;5083898;28;20024;-39
2023/01/16 02:58:26;;;;;;;2.47;1.00;;;5.60;99.90;;;;;;5072366;28;20024;-39
2023/01/16 03:00:56;;;;;;;4.28;1.30;;;5.60;99.90;;;;;;5083432;28;20455;-38
2023/01/16 03:03:36;;;;;;;2.80;0.98;;;5.50;99.90;;;;;;5083202;28;20563;-40
2023/01/16 03:06:14;;;;;;;2.10;1.20;;;5.50;99.90;;;;;;5083837;28;20059;-39
2023/01/16 03:08:58;;;;;;;3.08;1.05;;;5.40;99.90;;;;;;5084041;28;20059;-39
2023/01/16 03:11:29;;;;;;;3.28;1.15;;;5.40;99.90;;;;;;5082581;28;20034;-37
2023/01/16 03:14:36;;;;;;;2.60;1.20;;;5.30;99.90;;;;;;5072467;28;20391;-39
2023/01/16 03:17:13;;;;;;;1.50;0.90;;;5.20;99.90;;;;;;5083150;28;20035;-35
2023/01/16 03:19:57;;;;;;;2.35;1.00;;;5.20;99.90;;;;;;5084057;28;20138;-40
2023/01/16 03:22:36;;;;;;;3.60;1.00;;;5.20;99.90;;;;;;5083549;28;20036;-37
2023/01/16 03:25:17;;;;;;;3.88;1.55;;;5.20;99.90;;;;;;5082777;28;20028;-39
2023/01/16 03:27:45;;;;;;;2.70;1.08;;;5.10;99.90;;;;;;5083440;28;20554;-38
2023/01/16 03:30:26;;;;;;;2.88;1.00;;;5.10;99.90;;;;;;5083276;28;20032;-39
2023/01/16 03:33:16;;;;;;;2.72;0.80;;;5.10;99.90;;;;;;5082318;28;20471;-40
2023/01/16 03:35:48;;;;;;;4.22;1.00;;;5.10;99.90;;;;;;5083849;28;20115;-39
2023/01/16 03:38:17;;;;;;;2.83;0.80;;;5.10;99.90;;;;;;5081875;28;20046;-40
2023/01/16 03:40:45;;;;;;;5.45;1.08;;;5.00;99.90;;;;;;5082959;28;20145;-38
2023/01/16 03:43:18;;;;;;;2.38;1.20;;;5.00;99.90;;;;;;5082412;28;20061;-34
2023/01/16 03:45:51;;;;;;;4.18;1.25;;;5.00;99.90;;;;;;5082168;28;20080;-39
2023/01/16 03:48:48;;;;;;;2.70;1.40;;;5.00;99.90;;;;;;5082556;28;20027;-39
2023/01/16 03:51:24;;;;;;;2.47;0.90;;;5.00;99.90;;;;;;5083021;28;20048;-39
2023/01/16 03:54:17;;;;;;;1.98;1.25;;;5.00;99.90;;;;;;5082412;28;20027;-39
2023/01/16 03:57:03;;;;;;;3.17;0.95;;;5.00;99.90;;;;;;5062802;28;20043;-38
2023/01/16 03:59:29;;;;;;;3.20;0.75;;;4.90;99.90;;;;;;5080040;28;20024;-39
2023/01/16 04:02:00;;;;;;;2.95;0.98;;;4.90;99.90;;;;;;5081491;28;20031;-44
2023/01/16 04:04:42;;;;;;;1.42;0.80;;;4.90;99.90;;;;;;5081602;28;20057;-41
2023/01/16 04:07:19;;;;;;;2.38;0.90;;;4.90;99.90;;;;;;5061673;28;20050;-39
2023/01/16 04:09:51;;;;;;;2.45;1.10;;;4.90;99.90;;;;;;5079266;28;20052;-34
2023/01/16 04:12:21;;;;;;;2.15;1.00;;;4.90;99.90;;;;;;5082571;28;20140;-39
2023/01/16 04:14:52;;;;;;;3.15;0.98;;;5.00;99.90;;;;;;5082015;28;20473;-40
2023/01/16 04:17:18;;;;;;;2.30;0.90;;;5.00;99.90;;;;;;5082188;28;20120;-39
2023/01/16 04:19:44;;;;;;;2.70;0.90;;;5.00;99.90;;;;;;5082004;28;20031;-38
2023/01/16 04:22:26;;;;;;;3.00;1.08;;;5.00;99.90;;;;;;5081297;28;20685;-39
2023/01/16 04:24:54;;;;;;;1.55;0.82;;;5.00;99.90;;;;;;5082361;28;20016;-39
2023/01/16 04:27:20;;;;;;;2.53;0.70;;;5.10;99.90;;;;;;5081009;28;20626;-38
2023/01/16 04:29:45;;;;;;;1.58;0.80;;;5.10;99.90;;;;;;5082471;28;20042;-37
2023/01/16 04:32:11;;;;;;;5.90;0.90;;;5.10;99.90;;;;;;5081548;28;20596;-40
2023/01/16 04:34:37;;;;;;;1.67;0.88;;;5.20;99.90;;;;;;5080852;28;20036;-38
2023/01/16 04:37:03;;;;;;;2.65;1.10;;;5.20;99.90;;;;;;5081917;28;20825;-38
2023/01/16 04:39:28;;;;;;;2.50;1.10;;;5.20;99.90;;;;;;5081853;28;20557;-38
2023/01/16 04:41:54;;;;;;;2.25;0.95;;;5.20;99.90;;;;;;5081424;28;20040;-39
2023/01/16 04:44:19;;;;;;;3.58;1.00;;;5.20;99.90;;;;;;5081754;28;20028;-38
2023/01/16 04:46:45;;;;;;;2.75;1.23;;;5.20;99.90;;;;;;5082348;28;20035;-38
2023/01/16 04:49:11;;;;;;;2.55;0.90;;;5.20;99.90;;;;;;5080846;28;20031;-35
2023/01/16 04:51:38;;;;;;;4.07;1.30;;;5.10;99.90;;;;;;5082265;28;20517;-39
2023/01/16 04:54:05;;;;;;;2.58;1.23;;;5.10;99.90;;;;;;5081870;28;20119;-39
2023/01/16 04:56:30;;;;;;;4.70;1.40;;;5.10;99.90;;;;;;5081123;28;20043;-37
2023/01/16 04:58:56;;;;;;;2.42;1.00;;;5.10;99.90;;;;;;5082486;28;20083;-38
2023/01/16 05:01:22;;;;;;;3.92;1.17;;;5.00;99.90;;;;;;5081496;28;20560;-38
2023/01/16 05:03:50;;;;;;;3.17;1.20;;;5.00;99.90;;;;;;5081429;28;20044;-39
2023/01/16 05:06:16;;;;;;;1.73;1.10;;;5.00;99.90;;;;;;5081893;28;20081;-39
2023/01/16 05:08:42;;;;;;;3.47;1.30;;;4.90;99.90;;;;;;5082566;28;20050;-40
2023/01/16 05:11:08;;;;;;;3.67;1.30;;;4.90;99.90;;;;;;5080376;28;20723;-37
2023/01/16 05:13:34;;;;;;;4.00;1.38;;;4.90;99.90;;;;;;5081582;28;20024;-39
2023/01/16 05:15:59;;;;;;;1.90;1.00;;;4.90;99.90;;;;;;5081298;28;20028;-39
2023/01/16 05:18:25;;;;;;;2.70;1.30;;;4.90;99.90;;;;;;5081118;28;20012;-38
2023/01/16 05:20:51;;;;;;;2.25;1.25;;;4.90;99.90;;;;;;5081560;28;20024;-39
2023/01/16 05:23:16;;;;;;;2.35;1.00;;;4.90;99.90;;;;;;5080936;28;20543;-38
2023/01/16 05:25:43;;;;;;;1.85;0.80;;;4.90;99.90;;;;;;5081955;28;20064;-40
2023/01/16 05:28:08;;;;;;;4.60;1.25;;;5.00;99.90;;;;;;5081315;28;20031;-37
2023/01/16 05:30:34;;;;;;;2.80;1.10;;;5.00;99.90;;;;;;5080807;28;20024;-35
2023/01/16 05:33:01;;;;;;;3.47;1.17;;;5.00;99.90;;;;;;5080656;28;20041;-39
2023/01/16 05:35:27;;;;;;;5.20;1.20;;;5.00;99.90;;;;;;5081542;28;20062;-39
2023/01/16 05:37:52;;;;;;;3.20;1.00;;;5.00;99.90;;;;;;5080422;28;20024;-39
2023/01/16 05:40:18;;;;;;;3.75;1.27;;;5.00;99.90;;;;;;5080397;28;20031;-38
2023/01/16 05:42:44;;;;;;;3.53;1.10;;;5.10;99.90;;;;;;5081224;28;20039;-38
2023/01/16 05:45:10;;;;;;;3.10;1.20;;;5.00;99.90;;;;;;5080392;28;20032;-40
2023/01/16 05:47:36;;;;;;;2.67;1.20;;;5.10;99.90;;;;;;5081287;28;20039;-38
2023/01/16 05:50:02;;;;;;;3.83;1.33;;;5.10;99.90;;;;;;5080612;28;20036;-39
2023/01/16 05:52:27;;;;;;;2.38;1.05;;;5.10;99.90;;;;;;5080940;28;20130;-39
2023/01/16 05:54:54;;;;;;;3.70;1.20;;;5.20;99.90;;;;;;5080988;28;20817;-39
2023/01/16 05:57:20;;;;;;;3.45;1.30;;;5.20;99.90;;;;;;5080435;28;20032;-39
2023/01/16 05:59:52;;;;;;;2.83;0.98;;;5.20;99.90;;;;;;5081021;28;20023;-39
2023/01/16 06:02:20;;;;;;;4.95;1.10;;;5.30;99.90;;;;;;5080596;28;20046;-39
2023/01/16 06:04:46;;;;;;;2.80;0.93;;;5.30;99.90;;;;;;5081171;28;20028;-38
2023/01/16 06:07:12;;;;;;;4.60;1.38;;;5.40;99.90;;;;;;5080278;28;20012;-40
2023/01/16 06:09:38;;;;;;;3.63;1.10;;;5.40;99.90;;;;;;5084086;28;20035;-39
2023/01/16 06:12:04;;;;;;;3.53;1.48;;;5.40;99.90;;;;;;5085092;28;20050;-38
2023/01/16 06:14:29;;;;;;;7.63;1.65;;;5.40;99.90;;;;;;5084887;28;20878;-38
2023/01/16 06:16:58;;;;;;;4.25;1.48;;;5.50;99.90;;;;;;5085204;28;20028;-40
2023/01/16 06:19:23;;;;;;;5.57;1.80;;;5.40;99.90;;;;;;5084721;28;20093;-37
2023/01/16 06:21:49;;;;;;;5.00;2.13;;;5.40;99.90;;;;;;5084367;28;20281;-39
2023/01/16 06:24:14;;;;;;;5.25;1.80;;;5.40;99.90;;;;;;5084273;28;20068;-38
2023/01/16 06:26:40;;;;;;;3.67;1.60;;;5.50;99.90;;;;;;5084304;28;20565;-37
2023/01/16 06:29:06;;;;;;;3.35;1.50;;;5.50;99.90;;;;;;5083566;28;20498;-39
2023/01/16 06:31:31;;;;;;;3.10;1.20;;;5.50;99.90;;;;;;5085121;28;20383;-33
2023/01/16 06:33:57;;;;;;;4.38;1.17;;;5.50;99.90;;;;;;5083449;28;20574;-39
2023/01/16 06:36:22;;;;;;;3.28;1.10;;;5.50;99.90;;;;;;5083900;28;20035;-39
2023/01/16 06:38:48;;;;;;;3.55;1.38;;;5.40;99.90;;;;;;5084549;28;20052;-39
2023/01/16 06:41:13;;;;;;;1.60;1.15;;;5.40;99.90;;;;;;5083431;28;20123;-39
2023/01/16 06:43:41;;;;;;;4.25;1.27;;;5.40;99.90;;;;;;5082802;28;20139;-36
2023/01/16 06:46:06;;;;;;;2.90;1.10;;;5.40;99.90;;;;;;5082942;28;20055;-39
2023/01/16 06:48:32;;;;;;;2.58;1.30;;;5.40;99.90;;;;;;5082905;28;20020;-40
2023/01/16 06:51:01;;;;;;;3.58;2.25;;;5.50;99.90;;;;;;5083012;28;20588;-40
2023/01/16 06:53:27;;;;;;;1.83;1.10;;;5.40;99.90;;;;;;5083804;28;20024;-39
2023/01/16 06:55:53;;;;;;;2.10;1.15;;;5.50;99.90;;;;;;5082794;28;20023;-39
2023/01/16 06:58:18;;;;;;;4.30;1.20;;;5.50;99.90;;;;;;5083093;28;20046;-37
2023/01/16 07:00:44;;;;;;;3.25;1.20;;;5.50;99.90;;;;;;5083530;28;20035;-39
2023/01/16 07:03:10;;;;;;;1.52;0.93;;;5.50;99.90;;;;;;5083183;28;20126;-40
2023/01/16 07:05:36;;;;;;;2.35;1.10;;;5.50;99.90;;;;;;5083432;28;20055;-39
2023/01/16 07:08:02;;;;;;;2.30;1.10;;;5.60;99.90;;;;;;5083743;28;20127;-39
2023/01/16 07:10:28;;;;;;;2.30;1.02;;;5.60;99.90;;;;;;5083337;28;20066;-36
2023/01/16 07:12:54;;;;;;;2.90;1.30;;;5.60;99.90;;;;;;5083900;28;20035;-38
2023/01/16 07:24:05;;;;;;;2.97;1.30;;;5.60;99.90;;;;;;5082415;28;20043;-39
2023/01/16 07:26:33;;;;;;;2.90;1.45;;;5.60;99.90;;;;;;5083045;28;20023;-40
2023/01/16 07:28:58;;;;;;;2.10;1.35;;;5.60;99.90;;;;;;5083513;28;20071;-40
2023/01/16 07:31:25;;;;;;;2.08;1.33;;;5.60;99.90;;;;;;5082645;28;20507;-39
2023/01/16 07:33:51;;;;;;;2.47;1.23;;;5.60;99.90;;;;;;5082264;28;20182;-38
2023/01/16 07:36:16;;;;;;;3.70;1.40;;;5.60;99.90;;;;;;5082135;28;20430;-40
2023/01/16 07:38:42;;;;;;;2.30;1.27;;;5.60;99.90;;;;;;5082751;28;20020;-39
2023/01/16 07:41:08;;;;;;;4.13;1.40;;;5.60;99.90;;;;;;5082435;28;20319;-36
2023/01/16 07:43:34;;;;;;;1.83;1.30;;;5.60;99.90;;;;;;5082394;28;20048;-38
2023/01/16 07:46:00;;;;;;;3.45;1.30;;;5.60;99.90;;;;;;5082078;28;20023;-40
2023/01/16 07:48:26;;;;;;;3.35;1.10;;;5.60;99.90;;;;;;5083039;28;20032;-39
2023/01/16 07:50:56;;;;;;;2.05;1.20;;;5.60;99.90;;;;;;5082525;28;20593;-40
2023/01/16 07:53:27;;;;;;;3.03;1.60;;;5.60;99.90;;;;;;5081715;28;20475;-39
2023/01/16 07:55:55;;;;;;;3.50;1.60;;;5.60;99.90;;;;;;5082752;28;20031;-39
2023/01/16 07:58:21;;;;;;;3.13;1.40;;;5.50;99.90;;;;;;5081794;28;20028;-39
2023/01/16 08:00:47;;;;;;;2.22;1.10;;;5.60;99.90;;;;;;5083060;28;20660;-39
2023/01/16 08:03:14;;;;;;;1.80;1.27;;;5.60;99.90;;;;;;5082170;28;20523;-40
2023/01/16 08:05:43;;;;;;;1.95;1.30;;;5.60;99.90;;;;;;5082381;28;20051;-41
2023/01/16 08:08:09;;;;;;;2.65;1.42;;;5.60;99.90;;;;;;5080911;28;20468;-38
2023/01/16 08:10:35;;;;;;;4.05;1.52;;;5.60;99.90;;;;;;5083137;28;20016;-39
2023/01/16 08:13:01;;;;;;;2.90;1.20;;;5.60;99.90;;;;;;5080959;28;20038;-39
2023/01/16 08:15:26;;;;;;;3.65;1.63;;;5.50;99.90;;;;;;5083123;28;20028;-37
2023/01/16 08:17:52;;;;;;;5.75;1.63;;;5.50;99.90;;;;;;5082163;28;20641;-38
2023/01/16 08:20:17;;;;;;;2.28;1.38;;;5.50;99.90;;;;;;5081164;28;20111;-39
2023/01/16 08:22:49;;;;;;;3.55;1.75;;;5.50;99.90;;;;;;5082343;28;20032;-39
2023/01/16 08:25:18;;;;;;;2.38;1.50;;;5.50;99.90;;;;;;5082176;28;20028;-39
2023/01/16 08:27:44;;;;;;;2.78;1.45;;;5.50;99.90;;;;;;5081432;28;20024;-37
2023/01/16 08:30:10;;;;;;;2.60;1.42;;;5.50;99.90;;;;;;5082583;28;20024;-39
2023/01/16 08:32:36;;;;;;;2.55;1.30;;;5.50;99.90;;;;;;5081646;28;20307;-38
2023/01/16 08:35:03;;;;;;;2.80;1.30;;;5.50;99.90;;;;;;5080435;28;20455;-40
2023/01/16 08:37:30;;;;;;;1.98;1.10;;;5.50;99.90;;;;;;5081540;28;20184;-38
2023/01/16 08:39:55;;;;;;;2.17;1.30;;;5.60;99.90;;;;;;5082167;28;20024;-40
2023/01/16 08:53:18;;;;;;;3.67;1.15;;;5.60;99.90;;;;;;5081774;28;20031;-40
2023/01/16 08:55:46;;;;;;;1.90;1.10;;;5.60;99.90;;;;;;5081594;28;20028;-39
2023/01/16 08:58:11;;;;;;;2.90;1.15;;;5.60;99.90;;;;;;5081088;28;20121;-40
2023/01/16 09:00:37;;;;;;;3.03;1.30;;;5.60;99.90;;;;;;5081818;28;20828;-39
2023/01/16 09:03:03;;;;;;;2.25;1.05;;;5.60;99.90;;;;;;5079022;28;20748;-36
2023/01/16 09:05:29;;;;;;;4.85;1.15;;;5.70;99.90;;;;;;5081505;28;20016;-40
2023/01/16 09:07:54;;;;;;;2.17;1.15;;;5.70;99.90;;;;;;5081678;28;20024;-39
2023/01/16 09:10:20;;;;;;;2.83;1.38;;;5.70;99.90;;;;;;5081364;28;20043;-39
2023/01/16 09:15:33;;;;;;;2.83;1.50;;;5.70;99.90;;;;;;5081556;28;20051;-39
2023/01/16 09:17:58;;;;;;;2.80;1.52;;;5.80;99.90;;;;;;5081238;28;20473;-39
2023/01/16 09:20:24;;;;;;;2.85;1.38;;;5.80;99.90;;;;;;5081512;28;20020;-39
2023/01/16 09:22:57;;;;;;;2.83;1.20;;;5.80;99.90;;;;;;5081057;28;20083;-38
2023/01/16 09:25:23;;;;;;;5.32;1.67;;;5.80;99.90;;;;;;5081799;28;20129;-34
2023/01/16 09:27:48;;;;;;;1.83;1.23;;;5.80;99.90;;;;;;5082204;28;20065;-40
2023/01/16 09:30:14;;;;;;;3.15;1.30;;;5.80;99.90;;;;;;5080154;28;20020;-39
2023/01/16 09:32:40;;;;;;;2.05;1.42;;;5.90;99.90;;;;;;5080760;28;20024;-38
2023/01/16 09:35:05;;;;;;;2.67;1.50;;;5.90;99.90;;;;;;5080928;28;20024;-39
2023/01/16 09:37:31;;;;;;;2.05;1.30;;;5.90;99.90;;;;;;5080742;28;20086;-38
2023/01/16 09:39:56;;;;;;;4.70;1.30;;;5.90;99.90;;;;;;5081376;28;20097;-40
2023/01/16 09:45:33;;;;;;;2.10;1.27;;;6.00;99.90;;;;;;5084859;28;20067;-39
2023/01/16 09:48:05;;;;;;;1.63;1.40;;;6.00;99.90;;;;;;5085525;28;20028;-39
2023/01/16 09:50:47;;;;;;;2.05;1.17;;;6.00;99.90;;;;;;5084816;28;20032;-39
2023/01/16 09:58:34;;;;;;;1.10;1.00;;;6.00;99.90;;;;;;5085579;28;20088;-36
2023/01/16 09:59:46;;;;;;;2.33;1.70;;;6.00;99.90;;;;;;5084879;28;20047;-40
2023/01/16 10:02:27;;;;;;;4.78;1.60;;;6.00;99.90;;;;;;5085116;28;20266;-37
2023/01/16 10:04:55;;;;;;;2.88;1.38;;;6.10;99.90;;;;;;5084437;28;20142;-39
2023/01/16 10:07:41;;;;;;;1.58;1.20;;;6.10;99.90;;;;;;5084693;28;20031;-39
2023/01/16 10:10:38;;;;;;;2.35;1.55;;;6.10;99.90;;;;;;5084236;28;20257;-36
2023/01/16 10:13:28;;;;;;;2.42;1.40;;;6.10;99.90;;;;;;5074738;28;20019;-36
2023/01/16 10:16:26;;;;;;;1.98;1.33;;;6.10;99.90;;;;;;5084850;28;20889;-37
2023/01/16 10:18:52;;;;;;;1.77;1.20;;;6.10;99.90;;;;;;5054647;28;20375;-40
2023/01/16 10:21:39;;;;;;;1.38;1.20;;;6.10;99.90;;;;;;5096576;28;20024;-40
2023/01/16 10:24:28;;;;;;;4.60;1.40;;;6.10;99.90;;;;;;5084966;28;20123;-39
2023/01/16 10:27:07;;;;;;;1.85;1.00;;;6.10;99.90;;;;;;5083260;28;20107;-38
2023/01/16 10:29:39;;;;;;;1.60;1.13;;;6.10;99.90;;;;;;5084292;28;20027;-40
2023/01/16 10:32:33;;;;;;;2.30;1.37;;;6.10;99.90;;;;;;5083363;28;20028;-40
2023/01/16 10:35:10;;;;;;;1.75;1.13;;;6.00;99.90;;;;;;5054263;28;20056;-40
2023/01/16 10:37:38;;;;;;;2.38;1.42;;;6.00;99.90;;;;;;5080533;28;20058;-41
2023/01/16 10:40:30;;;;;;;1.40;1.05;;;6.10;99.90;;;;;;5082732;28;20113;-39
2023/01/16 10:51:27;;;;;;;1.55;1.05;;;6.10;99.90;;;;;;5083779;28;20051;-39
2023/01/16 10:53:55;;;;;;;1.35;1.05;;;6.10;99.90;;;;;;5082939;28;20028;-40
2023/01/16 10:56:21;;;;;;;2.05;1.65;;;6.10;99.90;;;;;;5082992;28;20125;-38
2023/01/16 10:58:46;;;;;;;1.77;0.98;;;6.10;99.90;;;;;;5083538;28;20025;-38
2023/01/16 11:01:16;;;;;;;1.10;1.00;;;6.10;99.90;;;;;;5081807;28;20028;-39
2023/01/16 11:03:46;;;;;;;1.15;1.00;;;6.20;99.90;;;;;;5082882;28;20142;-39
2023/01/16 11:06:15;;;;;;;0.90;0.90;;;6.10;99.90;;;;;;5082941;28;20184;-40
2023/01/16 11:08:43;;;;;;;2.47;0.90;;;6.20;99.90;;;;;;5083001;28;20032;-38
2023/01/16 11:19:39;;;;;;;1.83;0.70;;;6.20;99.90;;;;;;5082866;28;20452;-38
2023/01/16 11:22:22;;;;;;;2.33;1.00;;;6.20;99.90;;;;;;5081377;28;20437;-38
2023/01/16 11:24:47;;;;;;;1.30;0.90;;;6.20;99.90;;;;;;5084210;28;20024;-38
2023/01/16 11:27:20;;;;;;;1.92;0.98;;;6.20;99.90;;;;;;5084694;28;20055;-38
2023/01/16 11:29:45;;;;;;;0.73;0.68;;;6.30;99.90;;;;;;5083025;28;20024;-39
2023/01/16 11:32:14;;;;;;;2.08;0.63;;;6.30;99.90;;;;;;5082102;28;20039;-39
2023/01/16 11:34:46;;;;;;;1.42;0.73;;;6.40;99.90;;;;;;5082257;28;20044;-39
2023/01/16 11:37:15;;;;;;;1.80;0.80;;;6.40;99.90;;;;;;5082451;28;20043;-39
2023/01/16 11:39:45;;;;;;;1.02;0.70;;;6.50;99.90;;;;;;5083284;28;20034;-40
2023/01/16 11:47:44;;;;;;;0.77;0.60;;;6.90;99.90;;;;;;5082131;28;20051;-37
2023/01/16 11:50:21;;;;;;;1.40;0.50;;;7.00;99.90;;;;;;5081388;28;20028;-39
2023/01/16 11:52:48;;;;;;;1.20;0.52;;;7.00;99.90;;;;;;5082598;28;20040;-39
2023/01/16 11:55:14;;;;;;;0.57;0.50;;;7.00;99.90;;;;;;5081910;28;20027;-39
2023/01/16 11:58:02;;;;;;;1.23;0.40;;;7.00;99.90;;;;;;5062304;28;20102;-37
2023/01/16 12:00:58;;;;;;;0.60;0.60;;;7.00;99.90;;;;;;5078921;28;20036;-40
2023/01/16 12:03:55;;;;;;;1.00;0.50;;;6.90;99.90;;;;;;5083590;28;20509;-38
2023/01/16 12:06:52;;;;;;;1.17;0.50;;;6.90;99.90;;;;;;5078440;28;20031;-38
2023/01/16 12:09:33;;;;;;;0.88;0.70;;;6.90;99.90;;;;;;5081988;28;20032;-40
2023/01/16 12:15:24;;;;;;;0.77;0.60;;;7.00;99.90;;;;;;5081563;28;20055;-39
2023/01/16 12:18:18;;;;;;;1.80;0.70;;;7.00;99.90;;;;;;5043610;28;20479;-40
2023/01/16 12:20:49;;;;;;;1.10;0.80;;;7.00;99.90;;;;;;5082163;28;20024;-38
2023/01/16 12:23:36;;;;;;;1.38;0.50;;;7.00;99.90;;;;;;5080818;28;20061;-39
2023/01/16 12:26:20;;;;;;;1.05;0.60;;;7.10;99.90;;;;;;5080607;28;20032;-39
2023/01/16 12:29:04;;;;;;;2.25;0.60;;;7.10;99.90;;;;;;5062631;28;20094;-40
2023/01/16 12:31:48;;;;;;;0.73;0.60;;;7.20;99.90;;;;;;5078516;28;20570;-40
2023/01/16 12:34:25;;;;;;;1.67;0.70;;;7.30;99.90;;;;;;5079846;28;20091;-39
2023/01/16 12:37:10;;;;;;;0.47;0.47;;;7.20;99.90;;;;;;5081171;28;20035;-40
2023/01/16 12:39:56;;;;;;;1.20;0.60;;;7.20;99.90;;;;;;5081789;28;20034;-39
2023/01/16 12:45:26;;;;;;;1.05;0.50;;;7.20;99.90;;;;;;5081698;28;20379;-39
2023/01/16 12:48:00;;;;;;;1.52;0.45;;;7.20;99.90;;;;;;5081373;28;20108;-37
2023/01/16 12:50:53;;;;;;;2.00;0.80;;;7.30;99.90;;;;;;5094369;28;20036;-39
2023/01/16 12:53:49;;;;;;;0.63;0.63;;;7.30;99.90;;;;;;5071209;28;20024;-40
2023/01/16 12:56:29;;;;;;;0.77;0.57;;;7.30;99.90;;;;;;5081424;28;20024;-39
2023/01/16 12:59:01;;;;;;;0.70;0.60;;;7.30;99.90;;;;;;5082338;28;20039;-38
2023/01/16 13:01:38;;;;;;;1.67;0.68;;;7.30;99.90;;;;;;5081047;28;20035;-38
2023/01/16 13:04:13;;;;;;;0.70;0.60;;;7.30;99.90;;;;;;5080696;28;20082;-40
2023/01/16 13:07:00;;;;;;;0.93;0.50;;;7.30;99.90;;;;;;5081492;28;20153;-38
2023/01/16 13:09:48;;;;;;;0.80;0.50;;;7.40;99.90;;;;;;5081576;28;20031;-39
2023/01/16 13:15:32;;;;;;;0.63;0.50;;;7.40;99.90;;;;;;5080496;28;20050;-37
2023/01/16 13:18:04;;;;;;;1.00;0.50;;;7.40;99.90;;;;;;5077850;28;20048;-38
2023/01/16 13:20:30;;;;;;;0.85;0.50;;;7.40;99.90;;;;;;5062239;28;20059;-39
2023/01/16 13:23:05;;;;;;;1.23;0.88;;;7.30;99.90;;;;;;5075378;28;20040;-37
2023/01/16 13:25:37;;;;;;;1.77;0.70;;;7.30;99.90;;;;;;5081916;28;20360;-37
2023/01/16 13:28:42;;;;;;;0.80;0.60;;;7.30;99.90;;;;;;5080905;28;20110;-39
2023/01/16 13:31:19;;;;;;;0.80;0.50;;;7.30;99.90;;;;;;5060139;28;20134;-39
2023/01/16 13:33:48;;;;;;;0.40;0.40;;;7.20;99.90;;;;;;5079900;28;20063;-37
2023/01/16 13:36:43;;;;;;;0.90;0.60;;;7.20;99.90;;;;;;5079759;28;20031;-36
2023/01/16 13:39:37;;;;;;;0.80;0.60;;;7.20;99.90;;;;;;5080621;28;20016;-38
2023/01/16 13:42:07;;;;;;;1.00;0.55;;;7.20;99.90;;;;;;5080771;28;20032;-39
2023/01/16 13:47:28;;;;;;;1.08;0.60;;;7.20;99.90;;;;;;5081694;28;20066;-41
2023/01/16 13:50:06;;;;;;;1.85;0.50;;;7.20;99.90;;;;;;5080440;28;20024;-40
2023/01/16 13:52:34;;;;;;;1.27;0.85;;;7.20;99.90;;;;;;5081059;28;20201;-40
2023/01/16 13:55:06;;;;;;;0.60;0.60;;;7.20;99.90;;;;;;5080707;28;20538;-36
2023/01/16 13:57:32;;;;;;;0.70;0.70;;;7.20;99.90;;;;;;5080619;28;20039;-39
2023/01/16 14:00:01;;;;;;;0.90;0.70;;;7.10;99.90;;;;;;5081244;28;20065;-40
2023/01/16 14:02:36;;;;;;;1.00;0.60;;;7.10;99.90;;;;;;5081660;28;20084;-38
2023/01/16 14:05:24;;;;;;;0.98;0.50;;;7.10;99.90;;;;;;5078624;28;20016;-38
2023/01/16 14:11:04;;;;;;;0.55;0.50;;;7.00;99.90;;;;;;5080541;28;20046;-36
2023/01/16 14:13:37;;;;;;;0.63;0.60;;;7.00;99.90;;;;;;5081244;28;20024;-38
2023/01/16 14:16:30;;;;;;;1.48;0.50;;;6.90;99.90;;;;;;5070854;28;20024;-37
2023/01/16 14:18:55;;;;;;;0.60;0.60;;;6.90;99.90;;;;;;5080786;28;20036;-39
2023/01/16 14:21:39;;;;;;;0.85;0.60;;;6.90;99.90;;;;;;5081047;28;20047;-40
2023/01/16 14:24:20;;;;;;;0.88;0.70;;;6.90;99.90;;;;;;5080286;28;20036;-38
2023/01/16 14:26:51;;;;;;;1.17;0.70;;;6.90;99.90;;;;;;5080370;28;20135;-37
2023/01/16 14:29:22;;;;;;;0.77;0.60;;;6.90;99.90;;;;;;5081276;28;20024;-37
2023/01/16 14:31:55;;;;;;;1.02;0.70;;;6.80;99.90;;;;;;5085575;28;20058;-33